sensor_id;sensor_type;location;lat;lon;timestamp;temperature;humidity
68215;DHT22;55036;52.138;5.236;2022-11-20T00:01:24;-0.20;72.20
68215;DHT22;55036;52.138;5.236;2022-11-20T00:03:52;-0.20;72.10
68215;DHT22;55036;52.138;5.236;2022-11-20T00:06:20;-0.30;72.00
68215;DHT22;55036;52.138;5.236;2022-11-20T00:08:47;-0.30;72.20
68215;DHT22;55036;52.138;5.236;2022-11-20T00:11:17;-0.30;72.40
68215;DHT22;55036;52.138;5.236;2022-11-20T00:13:45;-0.30;72.30
68215;DHT22;55036;52.138;5.236;2022-11-20T00:16:14;-0.40;72.10
68215;DHT22;55036;52.138;5.236;2022-11-20T00:18:41;-0.40;72.20
68215;DHT22;55036;52.138;5.236;2022-11-20T00:21:13;-0.40;72.40
68215;DHT22;55036;52.138;5.236;2022-11-20T00:23:41;-0.40;72.50
68215;DHT22;55036;52.138;5.236;2022-11-20T00:26:10;-0.40;72.70
68215;DHT22;55036;52.138;5.236;2022-11-20T00:28:37;-0.40;72.80
68215;DHT22;55036;52.138;5.236;2022-11-20T00:31:07;-0.40;72.70
68215;DHT22;55036;52.138;5.236;2022-11-20T00:33:34;-0.40;72.80
68215;DHT22;55036;52.138;5.236;2022-11-20T00:36:06;-0.50;72.60
68215;DHT22;55036;52.138;5.236;2022-11-20T00:38:34;-0.50;72.60
68215;DHT22;55036;52.138;5.236;2022-11-20T00:41:04;-0.50;72.60
68215;DHT22;55036;52.138;5.236;2022-11-20T00:43:31;-0.60;72.60
68215;DHT22;55036;52.138;5.236;2022-11-20T00:46:03;-0.60;72.60
68215;DHT22;55036;52.138;5.236;2022-11-20T00:48:30;-0.60;72.70
68215;DHT22;55036;52.138;5.236;2022-11-20T00:50:57;-0.60;72.70
68215;DHT22;55036;52.138;5.236;2022-11-20T00:53:24;-0.80;73.20
68215;DHT22;55036;52.138;5.236;2022-11-20T00:58:25;-1.30;74.10
68215;DHT22;55036;52.138;5.236;2022-11-20T01:00:52;-1.30;73.70
68215;DHT22;55036;52.138;5.236;2022-11-20T01:03:19;-1.30;73.60
68215;DHT22;55036;52.138;5.236;2022-11-20T01:05:52;-1.20;73.80
68215;DHT22;55036;52.138;5.236;2022-11-20T01:08:18;-1.20;73.70
68215;DHT22;55036;52.138;5.236;2022-11-20T01:10:45;-1.10;73.60
68215;DHT22;55036;52.138;5.236;2022-11-20T01:13:12;-1.10;73.50
68215;DHT22;55036;52.138;5.236;2022-11-20T01:16:23;-1.10;73.50
68215;DHT22;55036;52.138;5.236;2022-11-20T01:18:51;-1.00;73.50
68215;DHT22;55036;52.138;5.236;2022-11-20T01:21:24;-0.90;73.70
68215;DHT22;55036;52.138;5.236;2022-11-20T01:23:51;-0.90;73.70
68215;DHT22;55036;52.138;5.236;2022-11-20T01:26:20;-0.90;73.70
68215;DHT22;55036;52.138;5.236;2022-11-20T01:28:48;-0.80;73.60
68215;DHT22;55036;52.138;5.236;2022-11-20T01:31:22;-0.90;73.40
68215;DHT22;55036;52.138;5.236;2022-11-20T01:33:52;-0.90;73.70
68215;DHT22;55036;52.138;5.236;2022-11-20T01:36:22;-0.90;73.60
68215;DHT22;55036;52.138;5.236;2022-11-20T01:38:55;-0.90;73.50
68215;DHT22;55036;52.138;5.236;2022-11-20T01:41:23;-0.90;73.50
68215;DHT22;55036;52.138;5.236;2022-11-20T01:44:13;-0.90;73.60
68215;DHT22;55036;52.138;5.236;2022-11-20T01:47:07;-1.00;73.30
68215;DHT22;55036;52.138;5.236;2022-11-20T01:49:40;-1.00;73.20
68215;DHT22;55036;52.138;5.236;2022-11-20T01:52:18;-1.10;73.20
68215;DHT22;55036;52.138;5.236;2022-11-20T01:57:48;-1.00;73.70
68215;DHT22;55036;52.138;5.236;2022-11-20T02:00:18;-1.00;73.80
68215;DHT22;55036;52.138;5.236;2022-11-20T02:02:50;-1.00;73.60
68215;DHT22;55036;52.138;5.236;2022-11-20T02:08:12;-1.00;73.40
68215;DHT22;55036;52.138;5.236;2022-11-20T02:10:39;-1.10;73.30
68215;DHT22;55036;52.138;5.236;2022-11-20T02:13:06;-1.10;73.60
68215;DHT22;55036;52.138;5.236;2022-11-20T02:15:51;-1.10;73.80
68215;DHT22;55036;52.138;5.236;2022-11-20T02:18:19;-1.10;73.50
68215;DHT22;55036;52.138;5.236;2022-11-20T02:20:49;-1.20;73.50
68215;DHT22;55036;52.138;5.236;2022-11-20T02:23:31;-1.20;73.90
68215;DHT22;55036;52.138;5.236;2022-11-20T02:26:01;-1.20;74.40
68215;DHT22;55036;52.138;5.236;2022-11-20T02:28:29;-1.20;73.90
68215;DHT22;55036;52.138;5.236;2022-11-20T02:30:56;-1.30;73.80
68215;DHT22;55036;52.138;5.236;2022-11-20T02:33:23;-1.40;74.00
68215;DHT22;55036;52.138;5.236;2022-11-20T02:35:50;-1.30;73.90
68215;DHT22;55036;52.138;5.236;2022-11-20T02:38:16;-1.30;73.90
68215;DHT22;55036;52.138;5.236;2022-11-20T02:40:43;-1.30;74.10
68215;DHT22;55036;52.138;5.236;2022-11-20T02:43:10;-1.30;74.20
68215;DHT22;55036;52.138;5.236;2022-11-20T02:45:37;-1.30;74.30
68215;DHT22;55036;52.138;5.236;2022-11-20T02:48:06;-1.20;74.20
68215;DHT22;55036;52.138;5.236;2022-11-20T02:50:36;-1.20;73.90
68215;DHT22;55036;52.138;5.236;2022-11-20T02:53:02;-1.30;73.80
68215;DHT22;55036;52.138;5.236;2022-11-20T02:55:29;-1.30;74.80
68215;DHT22;55036;52.138;5.236;2022-11-20T02:57:55;-1.30;74.10
68215;DHT22;55036;52.138;5.236;2022-11-20T03:00:22;-1.30;74.20
68215;DHT22;55036;52.138;5.236;2022-11-20T03:02:49;-1.30;73.90
68215;DHT22;55036;52.138;5.236;2022-11-20T03:05:15;-1.40;73.60
68215;DHT22;55036;52.138;5.236;2022-11-20T03:07:43;-1.40;73.70
68215;DHT22;55036;52.138;5.236;2022-11-20T03:10:10;-1.40;73.90
68215;DHT22;55036;52.138;5.236;2022-11-20T03:12:36;-1.40;74.10
68215;DHT22;55036;52.138;5.236;2022-11-20T03:15:03;-1.40;74.00
68215;DHT22;55036;52.138;5.236;2022-11-20T03:17:30;-1.40;73.80
68215;DHT22;55036;52.138;5.236;2022-11-20T03:19:57;-1.50;73.80
68215;DHT22;55036;52.138;5.236;2022-11-20T03:22:23;-1.50;73.80
68215;DHT22;55036;52.138;5.236;2022-11-20T03:24:50;-1.50;73.90
68215;DHT22;55036;52.138;5.236;2022-11-20T03:27:17;-1.50;74.00
68215;DHT22;55036;52.138;5.236;2022-11-20T03:29:44;-1.50;73.90
68215;DHT22;55036;52.138;5.236;2022-11-20T03:32:10;-1.60;74.10
68215;DHT22;55036;52.138;5.236;2022-11-20T03:34:37;-1.50;74.20
68215;DHT22;55036;52.138;5.236;2022-11-20T03:37:03;-1.50;74.10
68215;DHT22;55036;52.138;5.236;2022-11-20T03:39:30;-1.60;74.00
68215;DHT22;55036;52.138;5.236;2022-11-20T03:41:57;-1.60;73.70
68215;DHT22;55036;52.138;5.236;2022-11-20T03:44:23;-1.70;73.60
68215;DHT22;55036;52.138;5.236;2022-11-20T03:46:51;-1.60;74.00
68215;DHT22;55036;52.138;5.236;2022-11-20T03:49:17;-1.70;74.20
68215;DHT22;55036;52.138;5.236;2022-11-20T03:51:44;-1.70;73.90
68215;DHT22;55036;52.138;5.236;2022-11-20T03:54:11;-1.70;73.70
68215;DHT22;55036;52.138;5.236;2022-11-20T03:56:38;-1.70;73.80
68215;DHT22;55036;52.138;5.236;2022-11-20T03:59:06;-1.70;74.10
68215;DHT22;55036;52.138;5.236;2022-11-20T04:01:35;-1.70;74.00
68215;DHT22;55036;52.138;5.236;2022-11-20T04:04:02;-1.70;74.10
68215;DHT22;55036;52.138;5.236;2022-11-20T04:06:33;-1.80;73.70
68215;DHT22;55036;52.138;5.236;2022-11-20T04:08:59;-1.80;73.70
68215;DHT22;55036;52.138;5.236;2022-11-20T04:11:29;-1.90;73.80
68215;DHT22;55036;52.138;5.236;2022-11-20T04:13:58;-1.90;73.60
68215;DHT22;55036;52.138;5.236;2022-11-20T04:16:25;-1.90;73.60
68215;DHT22;55036;52.138;5.236;2022-11-20T04:18:57;-1.90;73.80
68215;DHT22;55036;52.138;5.236;2022-11-20T04:21:24;-2.00;73.70
68215;DHT22;55036;52.138;5.236;2022-11-20T04:23:52;-2.10;74.00
68215;DHT22;55036;52.138;5.236;2022-11-20T04:26:23;-2.10;74.20
68215;DHT22;55036;52.138;5.236;2022-11-20T04:28:50;-2.00;74.20
68215;DHT22;55036;52.138;5.236;2022-11-20T04:31:19;-1.90;74.10
68215;DHT22;55036;52.138;5.236;2022-11-20T04:33:46;-1.90;74.20
68215;DHT22;55036;52.138;5.236;2022-11-20T04:36:23;-1.90;74.10
68215;DHT22;55036;52.138;5.236;2022-11-20T04:38:54;-1.90;74.10
68215;DHT22;55036;52.138;5.236;2022-11-20T04:41:27;-1.90;74.00
68215;DHT22;55036;52.138;5.236;2022-11-20T04:43:56;-2.00;73.70
68215;DHT22;55036;52.138;5.236;2022-11-20T04:46:27;-2.10;73.80
68215;DHT22;55036;52.138;5.236;2022-11-20T04:48:54;-2.10;74.00
68215;DHT22;55036;52.138;5.236;2022-11-20T04:51:20;-2.10;73.80
68215;DHT22;55036;52.138;5.236;2022-11-20T04:53:47;-2.10;73.70
68215;DHT22;55036;52.138;5.236;2022-11-20T04:56:14;-2.10;73.80
68215;DHT22;55036;52.138;5.236;2022-11-20T04:58:41;-2.10;74.90
68215;DHT22;55036;52.138;5.236;2022-11-20T05:01:17;-2.10;74.00
68215;DHT22;55036;52.138;5.236;2022-11-20T05:03:44;-2.10;73.90
68215;DHT22;55036;52.138;5.236;2022-11-20T05:06:13;-2.10;74.00
68215;DHT22;55036;52.138;5.236;2022-11-20T05:08:40;-2.20;73.90
68215;DHT22;55036;52.138;5.236;2022-11-20T05:11:10;-2.20;73.80
68215;DHT22;55036;52.138;5.236;2022-11-20T05:13:38;-2.20;73.70
68215;DHT22;55036;52.138;5.236;2022-11-20T05:16:10;-2.30;73.90
68215;DHT22;55036;52.138;5.236;2022-11-20T05:18:38;-2.40;74.00
68215;DHT22;55036;52.138;5.236;2022-11-20T05:21:06;-2.70;74.60
68215;DHT22;55036;52.138;5.236;2022-11-20T05:23:34;-2.60;74.50
68215;DHT22;55036;52.138;5.236;2022-11-20T05:26:01;-2.50;74.40
68215;DHT22;55036;52.138;5.236;2022-11-20T05:28:29;-2.50;74.30
68215;DHT22;55036;52.138;5.236;2022-11-20T05:30:56;-2.40;74.80
68215;DHT22;55036;52.138;5.236;2022-11-20T05:33:22;-2.40;75.10
68215;DHT22;55036;52.138;5.236;2022-11-20T05:35:49;-2.40;75.00
68215;DHT22;55036;52.138;5.236;2022-11-20T05:38:16;-2.30;74.80
68215;DHT22;55036;52.138;5.236;2022-11-20T05:40:42;-2.30;74.50
68215;DHT22;55036;52.138;5.236;2022-11-20T05:43:09;-2.30;74.30
68215;DHT22;55036;52.138;5.236;2022-11-20T05:45:36;-2.30;74.30
68215;DHT22;55036;52.138;5.236;2022-11-20T05:48:02;-2.40;74.10
68215;DHT22;55036;52.138;5.236;2022-11-20T05:50:29;-2.40;74.20
68215;DHT22;55036;52.138;5.236;2022-11-20T05:52:58;-2.40;74.20
68215;DHT22;55036;52.138;5.236;2022-11-20T05:55:26;-2.40;74.10
68215;DHT22;55036;52.138;5.236;2022-11-20T05:57:54;-2.40;74.20
68215;DHT22;55036;52.138;5.236;2022-11-20T06:00:21;-2.40;74.60
68215;DHT22;55036;52.138;5.236;2022-11-20T06:02:48;-2.40;74.80
68215;DHT22;55036;52.138;5.236;2022-11-20T06:05:15;-2.40;74.70
68215;DHT22;55036;52.138;5.236;2022-11-20T06:07:41;-2.40;74.40
68215;DHT22;55036;52.138;5.236;2022-11-20T06:10:08;-2.40;74.10
68215;DHT22;55036;52.138;5.236;2022-11-20T06:12:35;-2.40;74.00
68215;DHT22;55036;52.138;5.236;2022-11-20T06:15:03;-2.50;74.20
68215;DHT22;55036;52.138;5.236;2022-11-20T06:17:30;-2.40;74.30
68215;DHT22;55036;52.138;5.236;2022-11-20T06:19:56;-2.40;74.10
68215;DHT22;55036;52.138;5.236;2022-11-20T06:22:23;-2.40;74.10
68215;DHT22;55036;52.138;5.236;2022-11-20T06:24:50;-2.50;74.00
68215;DHT22;55036;52.138;5.236;2022-11-20T06:27:16;-2.40;74.20
68215;DHT22;55036;52.138;5.236;2022-11-20T06:29:43;-2.40;74.40
68215;DHT22;55036;52.138;5.236;2022-11-20T06:32:10;-2.50;74.90
68215;DHT22;55036;52.138;5.236;2022-11-20T06:34:36;-2.50;74.50
68215;DHT22;55036;52.138;5.236;2022-11-20T06:37:03;-2.50;74.30
68215;DHT22;55036;52.138;5.236;2022-11-20T06:39:30;-2.50;74.20
68215;DHT22;55036;52.138;5.236;2022-11-20T06:41:56;-2.40;74.20
68215;DHT22;55036;52.138;5.236;2022-11-20T06:44:25;-2.50;74.60
68215;DHT22;55036;52.138;5.236;2022-11-20T06:46:51;-2.40;74.50
68215;DHT22;55036;52.138;5.236;2022-11-20T06:49:18;-2.40;74.40
68215;DHT22;55036;52.138;5.236;2022-11-20T06:51:45;-2.40;74.50
68215;DHT22;55036;52.138;5.236;2022-11-20T06:54:12;-2.50;74.60
68215;DHT22;55036;52.138;5.236;2022-11-20T06:56:38;-2.50;74.70
68215;DHT22;55036;52.138;5.236;2022-11-20T06:59:06;-2.40;74.70
68215;DHT22;55036;52.138;5.236;2022-11-20T07:01:33;-2.40;74.70
68215;DHT22;55036;52.138;5.236;2022-11-20T07:04:01;-2.40;74.60
68215;DHT22;55036;52.138;5.236;2022-11-20T07:06:28;-2.40;74.40
68215;DHT22;55036;52.138;5.236;2022-11-20T07:08:55;-2.40;74.30
68215;DHT22;55036;52.138;5.236;2022-11-20T07:11:21;-2.40;74.30
68215;DHT22;55036;52.138;5.236;2022-11-20T07:13:48;-2.50;74.30
68215;DHT22;55036;52.138;5.236;2022-11-20T07:16:15;-2.40;74.40
68215;DHT22;55036;52.138;5.236;2022-11-20T07:18:42;-2.40;74.30
68215;DHT22;55036;52.138;5.236;2022-11-20T07:21:15;-2.40;74.80
68215;DHT22;55036;52.138;5.236;2022-11-20T07:23:42;-2.40;75.30
68215;DHT22;55036;52.138;5.236;2022-11-20T07:26:10;-2.40;75.00
68215;DHT22;55036;52.138;5.236;2022-11-20T07:28:37;-2.30;74.90
68215;DHT22;55036;52.138;5.236;2022-11-20T07:31:05;-2.30;74.80
68215;DHT22;55036;52.138;5.236;2022-11-20T07:33:33;-2.30;75.10
68215;DHT22;55036;52.138;5.236;2022-11-20T07:35:59;-2.20;74.90
68215;DHT22;55036;52.138;5.236;2022-11-20T07:38:26;-2.30;75.00
68215;DHT22;55036;52.138;5.236;2022-11-20T07:40:54;-2.20;75.30
68215;DHT22;55036;52.138;5.236;2022-11-20T07:43:21;-2.20;75.30
68215;DHT22;55036;52.138;5.236;2022-11-20T07:45:48;-2.10;75.20
68215;DHT22;55036;52.138;5.236;2022-11-20T07:48:15;-2.00;75.20
68215;DHT22;55036;52.138;5.236;2022-11-20T07:50:41;-2.00;75.50
68215;DHT22;55036;52.138;5.236;2022-11-20T07:53:08;-1.90;75.60
68215;DHT22;55036;52.138;5.236;2022-11-20T07:55:34;-1.80;75.60
68215;DHT22;55036;52.138;5.236;2022-11-20T07:58:01;-1.80;75.60
68215;DHT22;55036;52.138;5.236;2022-11-20T08:00:28;-1.70;75.90
68215;DHT22;55036;52.138;5.236;2022-11-20T08:02:54;-1.60;76.10
68215;DHT22;55036;52.138;5.236;2022-11-20T08:05:21;-1.50;76.30
68215;DHT22;55036;52.138;5.236;2022-11-20T08:07:48;-1.40;76.20
68215;DHT22;55036;52.138;5.236;2022-11-20T08:10:15;-1.30;76.30
68215;DHT22;55036;52.138;5.236;2022-11-20T08:12:50;-1.20;76.30
68215;DHT22;55036;52.138;5.236;2022-11-20T08:15:38;-1.20;76.20
68215;DHT22;55036;52.138;5.236;2022-11-20T08:18:07;-1.10;76.50
68215;DHT22;55036;52.138;5.236;2022-11-20T08:20:54;-1.10;76.80
68215;DHT22;55036;52.138;5.236;2022-11-20T08:23:20;-1.00;77.10
68215;DHT22;55036;52.138;5.236;2022-11-20T08:25:49;-0.90;77.00
68215;DHT22;55036;52.138;5.236;2022-11-20T08:28:16;-0.80;76.90
68215;DHT22;55036;52.138;5.236;2022-11-20T08:30:47;-0.70;77.00
68215;DHT22;55036;52.138;5.236;2022-11-20T08:33:14;-0.60;77.20
68215;DHT22;55036;52.138;5.236;2022-11-20T08:35:41;-0.60;77.20
68215;DHT22;55036;52.138;5.236;2022-11-20T08:38:09;-0.50;77.10
68215;DHT22;55036;52.138;5.236;2022-11-20T08:40:35;-0.50;77.40
68215;DHT22;55036;52.138;5.236;2022-11-20T08:43:02;-0.40;77.20
68215;DHT22;55036;52.138;5.236;2022-11-20T08:45:29;-0.30;77.10
68215;DHT22;55036;52.138;5.236;2022-11-20T08:48:03;-0.30;77.30
68215;DHT22;55036;52.138;5.236;2022-11-20T08:50:31;-0.30;77.50
68215;DHT22;55036;52.138;5.236;2022-11-20T08:53:03;-0.20;77.60
68215;DHT22;55036;52.138;5.236;2022-11-20T08:55:31;-0.20;77.80
68215;DHT22;55036;52.138;5.236;2022-11-20T08:57:57;-0.20;78.10
68215;DHT22;55036;52.138;5.236;2022-11-20T09:00:24;-0.20;78.20
68215;DHT22;55036;52.138;5.236;2022-11-20T09:02:51;-0.20;78.60
68215;DHT22;55036;52.138;5.236;2022-11-20T09:05:18;-0.20;79.00
68215;DHT22;55036;52.138;5.236;2022-11-20T09:07:45;-0.10;79.10
68215;DHT22;55036;52.138;5.236;2022-11-20T09:10:11;0.00;78.80
68215;DHT22;55036;52.138;5.236;2022-11-20T09:12:54;0.10;78.50
68215;DHT22;55036;52.138;5.236;2022-11-20T09:15:22;0.10;78.80
68215;DHT22;55036;52.138;5.236;2022-11-20T09:17:59;0.10;79.40
68215;DHT22;55036;52.138;5.236;2022-11-20T09:20:27;0.10;79.40
68215;DHT22;55036;52.138;5.236;2022-11-20T09:22:56;0.20;79.50
68215;DHT22;55036;52.138;5.236;2022-11-20T09:25:23;0.30;79.20
68215;DHT22;55036;52.138;5.236;2022-11-20T09:27:58;0.40;78.90
68215;DHT22;55036;52.138;5.236;2022-11-20T09:30:26;0.50;79.10
68215;DHT22;55036;52.138;5.236;2022-11-20T09:32:53;0.60;79.20
68215;DHT22;55036;52.138;5.236;2022-11-20T09:35:20;0.70;79.10
68215;DHT22;55036;52.138;5.236;2022-11-20T09:37:46;0.70;79.20
68215;DHT22;55036;52.138;5.236;2022-11-20T09:40:25;0.80;79.30
68215;DHT22;55036;52.138;5.236;2022-11-20T09:46:20;0.90;79.50
68215;DHT22;55036;52.138;5.236;2022-11-20T09:52:01;1.10;79.10
68215;DHT22;55036;52.138;5.236;2022-11-20T09:54:36;1.10;79.30
68215;DHT22;55036;52.138;5.236;2022-11-20T09:57:11;1.10;79.50
68215;DHT22;55036;52.138;5.236;2022-11-20T09:59:51;1.20;79.60
68215;DHT22;55036;52.138;5.236;2022-11-20T10:04:59;1.40;78.90
68215;DHT22;55036;52.138;5.236;2022-11-20T10:10:33;1.60;78.70
68215;DHT22;55036;52.138;5.236;2022-11-20T10:13:39;1.60;79.00
68215;DHT22;55036;52.138;5.236;2022-11-20T10:19:18;1.70;79.00
68215;DHT22;55036;52.138;5.236;2022-11-20T10:24:56;1.80;78.90
68215;DHT22;55036;52.138;5.236;2022-11-20T10:32:38;1.90;78.80
68215;DHT22;55036;52.138;5.236;2022-11-20T10:35:34;1.90;78.70
68215;DHT22;55036;52.138;5.236;2022-11-20T10:38:05;1.90;78.80
68215;DHT22;55036;52.138;5.236;2022-11-20T10:40:38;2.00;78.70
68215;DHT22;55036;52.138;5.236;2022-11-20T10:43:19;1.90;79.00
68215;DHT22;55036;52.138;5.236;2022-11-20T10:46:00;2.10;79.00
68215;DHT22;55036;52.138;5.236;2022-11-20T10:48:28;2.10;78.80
68215;DHT22;55036;52.138;5.236;2022-11-20T10:51:07;2.20;79.20
68215;DHT22;55036;52.138;5.236;2022-11-20T10:56:30;2.30;78.90
68215;DHT22;55036;52.138;5.236;2022-11-20T11:01:31;2.30;78.80
68215;DHT22;55036;52.138;5.236;2022-11-20T11:03:58;2.40;78.60
68215;DHT22;55036;52.138;5.236;2022-11-20T11:06:37;2.50;78.50
68215;DHT22;55036;52.138;5.236;2022-11-20T11:09:24;2.50;78.50
68215;DHT22;55036;52.138;5.236;2022-11-20T11:11:54;2.50;78.50
68215;DHT22;55036;52.138;5.236;2022-11-20T11:14:21;2.50;78.50
68215;DHT22;55036;52.138;5.236;2022-11-20T11:16:56;2.60;78.40
68215;DHT22;55036;52.138;5.236;2022-11-20T11:19:24;2.50;79.00
68215;DHT22;55036;52.138;5.236;2022-11-20T11:21:55;2.60;78.80
68215;DHT22;55036;52.138;5.236;2022-11-20T11:24:28;2.60;79.00
68215;DHT22;55036;52.138;5.236;2022-11-20T11:27:14;2.60;79.10
68215;DHT22;55036;52.138;5.236;2022-11-20T11:29:45;2.50;79.60
68215;DHT22;55036;52.138;5.236;2022-11-20T11:32:20;2.50;79.50
68215;DHT22;55036;52.138;5.236;2022-11-20T11:35:05;2.70;79.40
68215;DHT22;55036;52.138;5.236;2022-11-20T11:37:37;2.60;80.20
68215;DHT22;55036;52.138;5.236;2022-11-20T11:40:05;2.70;79.90
68215;DHT22;55036;52.138;5.236;2022-11-20T11:42:54;2.70;79.80
68215;DHT22;55036;52.138;5.236;2022-11-20T11:45:21;2.70;80.10
68215;DHT22;55036;52.138;5.236;2022-11-20T11:47:48;2.80;79.90
68215;DHT22;55036;52.138;5.236;2022-11-20T11:50:25;2.90;80.30
68215;DHT22;55036;52.138;5.236;2022-11-20T11:53:12;2.90;80.40
68215;DHT22;55036;52.138;5.236;2022-11-20T11:56:04;2.90;80.80
68215;DHT22;55036;52.138;5.236;2022-11-20T11:58:51;3.00;81.00
68215;DHT22;55036;52.138;5.236;2022-11-20T12:04:09;2.90;82.10
68215;DHT22;55036;52.138;5.236;2022-11-20T12:06:44;3.00;82.40
68215;DHT22;55036;52.138;5.236;2022-11-20T12:09:12;3.00;81.70
68215;DHT22;55036;52.138;5.236;2022-11-20T12:12:10;3.00;83.10
68215;DHT22;55036;52.138;5.236;2022-11-20T12:14:44;3.00;84.20
68215;DHT22;55036;52.138;5.236;2022-11-20T12:17:12;2.90;85.30
68215;DHT22;55036;52.138;5.236;2022-11-20T12:19:39;2.90;84.50
68215;DHT22;55036;52.138;5.236;2022-11-20T12:22:24;3.00;84.50
68215;DHT22;55036;52.138;5.236;2022-11-20T12:30:39;2.90;85.90
68215;DHT22;55036;52.138;5.236;2022-11-20T12:33:38;3.00;85.10
68215;DHT22;55036;52.138;5.236;2022-11-20T12:36:26;3.10;85.20
68215;DHT22;55036;52.138;5.236;2022-11-20T12:39:02;3.20;84.70
68215;DHT22;55036;52.138;5.236;2022-11-20T12:44:37;3.20;85.70
68215;DHT22;55036;52.138;5.236;2022-11-20T12:47:41;3.20;86.30
68215;DHT22;55036;52.138;5.236;2022-11-20T12:50:28;3.10;86.70
68215;DHT22;55036;52.138;5.236;2022-11-20T12:56:15;3.10;86.50
68215;DHT22;55036;52.138;5.236;2022-11-20T13:01:42;3.30;85.70
68215;DHT22;55036;52.138;5.236;2022-11-20T13:06:53;3.30;87.50
68215;DHT22;55036;52.138;5.236;2022-11-20T13:09:22;3.30;87.50
68215;DHT22;55036;52.138;5.236;2022-11-20T13:17:50;3.30;87.30
68215;DHT22;55036;52.138;5.236;2022-11-20T13:20:18;3.40;87.00
68215;DHT22;55036;52.138;5.236;2022-11-20T13:22:47;3.40;87.50
68215;DHT22;55036;52.138;5.236;2022-11-20T13:25:33;3.40;87.90
68215;DHT22;55036;52.138;5.236;2022-11-20T13:30:47;3.40;87.40
68215;DHT22;55036;52.138;5.236;2022-11-20T13:33:35;3.40;86.80
68215;DHT22;55036;52.138;5.236;2022-11-20T13:36:06;3.40;86.80
68215;DHT22;55036;52.138;5.236;2022-11-20T13:39:05;3.40;87.50
68215;DHT22;55036;52.138;5.236;2022-11-20T13:41:34;3.30;88.00
68215;DHT22;55036;52.138;5.236;2022-11-20T13:46:44;3.40;87.30
68215;DHT22;55036;52.138;5.236;2022-11-20T14:00:17;3.50;86.60
68215;DHT22;55036;52.138;5.236;2022-11-20T14:02:58;3.50;87.30
68215;DHT22;55036;52.138;5.236;2022-11-20T14:05:25;3.50;86.70
68215;DHT22;55036;52.138;5.236;2022-11-20T14:07:52;3.60;86.80
68215;DHT22;55036;52.138;5.236;2022-11-20T14:10:24;3.60;86.30
68215;DHT22;55036;52.138;5.236;2022-11-20T14:12:58;3.60;86.60
68215;DHT22;55036;52.138;5.236;2022-11-20T14:15:26;3.60;87.00
68215;DHT22;55036;52.138;5.236;2022-11-20T14:17:53;3.50;88.30
68215;DHT22;55036;52.138;5.236;2022-11-20T14:20:22;3.40;88.70
68215;DHT22;55036;52.138;5.236;2022-11-20T14:22:52;3.50;88.30
68215;DHT22;55036;52.138;5.236;2022-11-20T14:25:22;3.50;88.70
68215;DHT22;55036;52.138;5.236;2022-11-20T14:27:55;3.50;88.30
68215;DHT22;55036;52.138;5.236;2022-11-20T14:30:28;3.50;88.20
68215;DHT22;55036;52.138;5.236;2022-11-20T14:33:03;3.50;89.00
68215;DHT22;55036;52.138;5.236;2022-11-20T14:35:34;3.40;89.50
68215;DHT22;55036;52.138;5.236;2022-11-20T14:38:02;3.40;89.60
68215;DHT22;55036;52.138;5.236;2022-11-20T14:40:34;3.40;89.50
68215;DHT22;55036;52.138;5.236;2022-11-20T14:43:22;3.50;88.70
68215;DHT22;55036;52.138;5.236;2022-11-20T14:45:59;3.50;89.60
68215;DHT22;55036;52.138;5.236;2022-11-20T14:48:32;3.50;89.60
68215;DHT22;55036;52.138;5.236;2022-11-20T14:51:00;3.50;89.10
68215;DHT22;55036;52.138;5.236;2022-11-20T14:53:27;3.50;89.80
68215;DHT22;55036;52.138;5.236;2022-11-20T14:55:58;3.50;89.50
68215;DHT22;55036;52.138;5.236;2022-11-20T14:58:27;3.50;89.30
68215;DHT22;55036;52.138;5.236;2022-11-20T15:01:05;3.50;89.40
68215;DHT22;55036;52.138;5.236;2022-11-20T15:03:40;3.50;90.40
68215;DHT22;55036;52.138;5.236;2022-11-20T15:06:10;3.50;89.70
68215;DHT22;55036;52.138;5.236;2022-11-20T15:08:37;3.60;89.20
68215;DHT22;55036;52.138;5.236;2022-11-20T15:11:20;3.60;90.00
68215;DHT22;55036;52.138;5.236;2022-11-20T15:13:49;3.60;90.00
68215;DHT22;55036;52.138;5.236;2022-11-20T15:16:21;3.50;89.90
68215;DHT22;55036;52.138;5.236;2022-11-20T15:18:48;3.50;90.00
68215;DHT22;55036;52.138;5.236;2022-11-20T15:21:18;3.40;90.30
68215;DHT22;55036;52.138;5.236;2022-11-20T15:23:45;3.40;90.60
68215;DHT22;55036;52.138;5.236;2022-11-20T15:26:13;3.40;90.60
68215;DHT22;55036;52.138;5.236;2022-11-20T15:28:47;3.40;90.40
68215;DHT22;55036;52.138;5.236;2022-11-20T15:31:21;3.50;90.30
68215;DHT22;55036;52.138;5.236;2022-11-20T15:33:49;3.60;90.00
68215;DHT22;55036;52.138;5.236;2022-11-20T15:36:16;3.60;89.80
68215;DHT22;55036;52.138;5.236;2022-11-20T15:38:43;3.60;90.00
68215;DHT22;55036;52.138;5.236;2022-11-20T15:41:09;3.40;91.10
68215;DHT22;55036;52.138;5.236;2022-11-20T15:43:37;3.30;91.20
68215;DHT22;55036;52.138;5.236;2022-11-20T15:46:15;3.30;91.10
68215;DHT22;55036;52.138;5.236;2022-11-20T15:48:49;3.40;91.00
68215;DHT22;55036;52.138;5.236;2022-11-20T15:53:56;3.40;91.00
68215;DHT22;55036;52.138;5.236;2022-11-20T15:56:23;3.40;91.20
68215;DHT22;55036;52.138;5.236;2022-11-20T15:58:50;3.40;91.10
68215;DHT22;55036;52.138;5.236;2022-11-20T16:01:19;3.40;91.60
68215;DHT22;55036;52.138;5.236;2022-11-20T16:03:47;3.40;91.70
68215;DHT22;55036;52.138;5.236;2022-11-20T16:06:13;3.40;91.70
68215;DHT22;55036;52.138;5.236;2022-11-20T16:08:42;3.40;91.90
68215;DHT22;55036;52.138;5.236;2022-11-20T16:11:13;3.40;91.70
68215;DHT22;55036;52.138;5.236;2022-11-20T16:13:40;3.50;91.60
68215;DHT22;55036;52.138;5.236;2022-11-20T16:16:27;3.60;91.90
68215;DHT22;55036;52.138;5.236;2022-11-20T16:18:55;3.60;91.20
68215;DHT22;55036;52.138;5.236;2022-11-20T16:21:22;3.70;91.00
68215;DHT22;55036;52.138;5.236;2022-11-20T16:23:54;3.80;91.30
68215;DHT22;55036;52.138;5.236;2022-11-20T16:26:20;3.70;91.30
68215;DHT22;55036;52.138;5.236;2022-11-20T16:28:47;3.70;91.20
68215;DHT22;55036;52.138;5.236;2022-11-20T16:31:16;3.70;91.40
68215;DHT22;55036;52.138;5.236;2022-11-20T16:33:55;3.70;91.60
68215;DHT22;55036;52.138;5.236;2022-11-20T16:36:24;3.80;91.30
68215;DHT22;55036;52.138;5.236;2022-11-20T16:38:58;3.90;91.10
68215;DHT22;55036;52.138;5.236;2022-11-20T16:41:27;3.80;91.40
68215;DHT22;55036;52.138;5.236;2022-11-20T16:43:56;3.90;91.00
68215;DHT22;55036;52.138;5.236;2022-11-20T16:46:31;3.90;90.70
68215;DHT22;55036;52.138;5.236;2022-11-20T16:48:59;3.90;90.80
68215;DHT22;55036;52.138;5.236;2022-11-20T16:51:28;3.90;91.20
68215;DHT22;55036;52.138;5.236;2022-11-20T16:53:55;3.90;90.90
68215;DHT22;55036;52.138;5.236;2022-11-20T16:56:24;4.00;90.70
68215;DHT22;55036;52.138;5.236;2022-11-20T16:58:53;4.00;90.60
68215;DHT22;55036;52.138;5.236;2022-11-20T17:01:21;4.00;90.90
68215;DHT22;55036;52.138;5.236;2022-11-20T17:03:57;4.00;90.90
68215;DHT22;55036;52.138;5.236;2022-11-20T17:06:26;4.00;90.90
68215;DHT22;55036;52.138;5.236;2022-11-20T17:08:54;4.00;90.80
68215;DHT22;55036;52.138;5.236;2022-11-20T17:11:22;4.00;90.80
68215;DHT22;55036;52.138;5.236;2022-11-20T17:13:48;4.10;90.70
68215;DHT22;55036;52.138;5.236;2022-11-20T17:16:20;4.00;90.80
68215;DHT22;55036;52.138;5.236;2022-11-20T17:18:47;4.10;90.70
68215;DHT22;55036;52.138;5.236;2022-11-20T17:21:18;4.10;90.70